• Join FlightAware (Why Join?)
  • Login
  • US Flag GB Flag 
12:45 EDT


 

Airport Tracker/Info


-or-


 

Live Flight TrackerFlight Track Log ✈ DAL3673 ✈ 17-Apr-2013 ✈ KMSP - KLSE

Flight Track Log - Related Links

Times and Time Zones

All times are in EDT time to prevent confusion due to time zone crossing. See the DAL3673 flight status page for this flight to view local times or setup timezone preferences in your user account.

Time Position Orientation Groundspeed Altitude Reporting Facility
EDT Latitude Longitude Course Direction KTS MPH feet Rate Location/Type
15:51 44.8553 -93.2344 150° Southeast 164 189 2,000  Level FAA TRACON SMA TRACON (SMA)
15:51 44.8433 -93.2258 153° Southeast 159 183 2,800 2,220 Climbing FAA TRACON SMA TRACON (SMA)
15:52 44.8303 -93.2142 148° Southeast 172 198 3,500 2,580 Climbing FAA TRACON SMA TRACON (SMA)
15:52 44.8133 -93.1989 147° Southeast 188 216 4,500 2,040 Climbing FAA TRACON SMA TRACON (SMA)
15:52 44.7969 -93.1847 148° Southeast 213 245 4,900 1,800 Climbing FAA TRACON SMA TRACON (SMA)
15:53 44.7794 -93.1694 148° Southeast 236 272 5,700 2,820 Climbing FAA TRACON SMA TRACON (SMA)
15:53 44.7581 -93.1486 145° Southeast 244 281 6,800 2,580 Climbing FAA TRACON SMA TRACON (SMA)
15:53 44.7406 -93.1292 142° Southeast 254 292 7,500 2,400 Climbing FAA TRACON SMA TRACON (SMA)
15:54 44.7503 -92.9559 140° Southeast  Level Estimated
15:54 44.7228 -93.1086 141° Southeast 267 307 8,400  Level FAA TRACON SMA TRACON (SMA)
15:54 44.7017 -93.0800 136° Southeast 274 315 8,900 720 Climbing FAA TRACON SMA TRACON (SMA)
15:54 44.6872 -93.0544 128° Southeast 272 313 8,900  Level FAA TRACON SMA TRACON (SMA)
15:55 44.6836 -92.9025 150° Southeast  Level FlightAware Approximate
15:55 44.6733 -93.0292 128° Southeast 267 307 8,900  Level FAA TRACON SMA TRACON (SMA)
15:55 44.6567 -92.9981 127° Southeast 260 299 8,900  Level FAA TRACON SMA TRACON (SMA)
15:55 44.6433 -92.9744 128° Southeast 255 293 8,900  Level FAA TRACON SMA TRACON (SMA)
15:56 44.5934 -92.8305 150° Southeast  Level FlightAware Approximate
15:56 44.6297 -92.9506 129° Southeast 254 292 8,900  Level FAA TRACON SMA TRACON (SMA)
15:56 44.6125 -92.9206 129° Southeast 256 295 8,900  Level FAA TRACON SMA TRACON (SMA)
15:56 44.5983 -92.8956 129° Southeast 264 304 8,900  Level FAA TRACON SMA TRACON (SMA)
15:57 44.5836 -92.8700 129° Southeast 271 312 8,900  Level FAA TRACON SMA TRACON (SMA)
15:57 44.5653 -92.8364 127° Southeast 280 322 8,900  Level FAA TRACON SMA TRACON (SMA)
15:57 44.5503 -92.8089 127° Southeast 286 329 8,900  Level FAA TRACON SMA TRACON (SMA)
15:58 44.5150 -92.7478 129° Southeast 293 337 8,900  Level FAA TRACON SMA TRACON (SMA)
15:58 44.5006 -92.7183 125° Southeast 297 342 8,900  Level FAA TRACON SMA TRACON (SMA)
15:59 44.4875 -92.6864 120° Southeast 303 349 8,900  Level FAA TRACON SMA TRACON (SMA)
15:59 44.4706 -92.6481 122° Southeast 303 349 8,900  Level FAA TRACON SMA TRACON (SMA)
15:59 44.4581 -92.6158 119° Southeast 305 351 8,900  Level FAA TRACON SMA TRACON (SMA)
16:00 44.4447 -92.5850 121° Southeast 304 350 8,900  Level FAA TRACON SMA TRACON (SMA)
16:00 44.4300 -92.5472 119° Southeast 290 334 8,900  Level FAA TRACON SMA TRACON (SMA)
16:00 44.4192 -92.5181 117° Southeast 278 320 8,900  Level FAA TRACON SMA TRACON (SMA)
16:01 44.4072 -92.4914 122° Southeast 270 311 8,900  Level FAA TRACON SMA TRACON (SMA)
16:01 44.3942 -92.4569 118° Southeast 261 300 8,900  Level FAA TRACON SMA TRACON (SMA)
16:01 44.3831 -92.4300 120° Southeast 257 296 8,900  Level FAA TRACON SMA TRACON (SMA)
16:02 44.3711 -92.4033 122° Southeast 261 300 8,900  Level FAA TRACON SMA TRACON (SMA)
16:02 44.3594 -92.3744 119° Southeast 271 312 8,900  Level FAA TRACON SMA TRACON (SMA)
16:02 44.3447 -92.3369 119° Southeast 282 325 8,900  Level FAA TRACON SMA TRACON (SMA)
16:03 44.3317 -92.3072 122° Southeast 289 333 8,900  Level FAA TRACON SMA TRACON (SMA)
16:03 44.3192 -92.2781 121° Southeast 287 330 8,900  Level FAA TRACON SMA TRACON (SMA)
16:03 44.2994 -92.2481 133° Southeast 274 315 8,900  Level FAA TRACON SMA TRACON (SMA)
16:04 44.2822 -92.2264 138° Southeast 269 310 8,900  Level FAA TRACON SMA TRACON (SMA)
16:04 44.2667 -92.2036 134° Southeast 265 305 8,900  Level FAA TRACON SMA TRACON (SMA)
16:04 44.2475 -92.1753 133° Southeast 261 300 8,900  Level FAA TRACON SMA TRACON (SMA)
16:06 44.1567 -92.0675 140° Southeast 260 299 8,900  Level Minneapolis Center
16:07 44.1036 -91.9964 136° Southeast 266 306 8,900  Level Minneapolis Center
16:08 44.0447 -91.9186 136° Southeast 273 314 8,900  Level Minneapolis Center
16:09 43.9897 -91.8469 137° Southeast 275 316 8,900  Level Minneapolis Center
16:10 43.9292 -91.7681 137° Southeast 279 321 8,900 -720 Level Minneapolis Center
16:11 43.8739 -91.6967 137° Southeast 273 314 7,500 -1,560 Descending Minneapolis Center
16:12 43.8239 -91.6283 135° Southeast 259 298 5,800 -1,260 Descending Minneapolis Center
16:13 43.7739 -91.5603 135° Southeast 253 291 5,000 -420 Descending Minneapolis Center
16:14 43.7292 -91.5022 137° Southeast 240 276 5,000  Level Minneapolis Center
16:15 43.6814 -91.4394 136° Southeast 235 270 5,000 -300 Level Minneapolis Center
16:16 43.6678 -91.3425 101° East 224 258 4,400 -840 Descending Minneapolis Center
16:18 43.7217 -91.2847 38° Northeast 217 250 3,100 -780 Descending Minneapolis Center
16:19 43.7611 -91.2756 10° North 191 220 2,800 -300 Descending Minneapolis Center